FlightSource - Aviation Photo Database

World Wide Airport Lookup


Search by ICAO
Or
Search by City

FlightSource.ca - Aviation Photo Database - San Carlos De Bariloche Airport Information
Airport Identification
Name: San Carlos De Bariloche Airport
ICAO: SAZS
IATA: BRC
Airport Location
City: San Carlos de Bariloche
Region: R
Country: Argentina
Continent: South America
Latitude: -41.1512
Longitude: -71.1575
Airport Information
Type: Medium Airport
Elevation: 2774 Feet ASL
Flight Status: SAZS
More Info: SAZS
Airport Weather    
Metar: SAZS 191400Z 30020KT 9999 VCSH FEW019 SCT029 02/M01 Q1013 RESN
TAF:


Advertisement